sensor_id;sensor_type;location;lat;lon;timestamp;temperature;humidity
32215;DHT22;18708;53.124;23.190;2024-01-25T00:01:39;4.90;99.90
32215;DHT22;18708;53.124;23.190;2024-01-25T00:04:05;4.90;99.90
32215;DHT22;18708;53.124;23.190;2024-01-25T00:06:30;4.80;99.90
32215;DHT22;18708;53.124;23.190;2024-01-25T00:08:56;4.90;99.90
32215;DHT22;18708;53.124;23.190;2024-01-25T00:11:22;4.80;99.90
32215;DHT22;18708;53.124;23.190;2024-01-25T00:13:47;4.90;99.90
32215;DHT22;18708;53.124;23.190;2024-01-25T00:16:13;4.90;99.90
32215;DHT22;18708;53.124;23.190;2024-01-25T00:18:39;4.80;99.90
32215;DHT22;18708;53.124;23.190;2024-01-25T00:21:04;4.80;99.90
32215;DHT22;18708;53.124;23.190;2024-01-25T00:23:30;4.80;99.90
32215;DHT22;18708;53.124;23.190;2024-01-25T00:25:56;4.90;99.90
32215;DHT22;18708;53.124;23.190;2024-01-25T00:28:24;4.80;99.90
32215;DHT22;18708;53.124;23.190;2024-01-25T00:30:50;4.80;99.90
32215;DHT22;18708;53.124;23.190;2024-01-25T00:33:16;4.80;99.90
32215;DHT22;18708;53.124;23.190;2024-01-25T00:35:42;4.80;99.90
32215;DHT22;18708;53.124;23.190;2024-01-25T00:38:08;4.90;99.90
32215;DHT22;18708;53.124;23.190;2024-01-25T00:40:34;4.90;99.90
32215;DHT22;18708;53.124;23.190;2024-01-25T00:43:00;4.90;99.90
32215;DHT22;18708;53.124;23.190;2024-01-25T00:45:26;4.90;99.90
32215;DHT22;18708;53.124;23.190;2024-01-25T00:47:52;4.90;99.90
32215;DHT22;18708;53.124;23.190;2024-01-25T00:50:18;4.80;99.90
32215;DHT22;18708;53.124;23.190;2024-01-25T00:52:47;4.80;99.90
32215;DHT22;18708;53.124;23.190;2024-01-25T00:55:14;4.90;99.90
32215;DHT22;18708;53.124;23.190;2024-01-25T00:57:40;4.80;99.90
32215;DHT22;18708;53.124;23.190;2024-01-25T01:00:06;4.90;99.90
32215;DHT22;18708;53.124;23.190;2024-01-25T01:02:37;4.90;99.90
32215;DHT22;18708;53.124;23.190;2024-01-25T01:05:05;4.80;99.90
32215;DHT22;18708;53.124;23.190;2024-01-25T01:07:31;4.80;99.90
32215;DHT22;18708;53.124;23.190;2024-01-25T01:09:59;4.80;99.90
32215;DHT22;18708;53.124;23.190;2024-01-25T01:12:25;4.80;99.90
32215;DHT22;18708;53.124;23.190;2024-01-25T01:14:50;4.80;99.90
32215;DHT22;18708;53.124;23.190;2024-01-25T01:17:16;4.70;99.90
32215;DHT22;18708;53.124;23.190;2024-01-25T01:19:43;4.80;99.90
32215;DHT22;18708;53.124;23.190;2024-01-25T01:22:09;4.80;99.90
32215;DHT22;18708;53.124;23.190;2024-01-25T01:24:35;4.70;99.90
32215;DHT22;18708;53.124;23.190;2024-01-25T01:27:00;4.70;99.90
32215;DHT22;18708;53.124;23.190;2024-01-25T01:29:26;4.70;99.90
32215;DHT22;18708;53.124;23.190;2024-01-25T01:31:52;4.80;99.90
32215;DHT22;18708;53.124;23.190;2024-01-25T01:34:17;4.70;99.90
32215;DHT22;18708;53.124;23.190;2024-01-25T01:36:44;4.60;99.90
32215;DHT22;18708;53.124;23.190;2024-01-25T01:39:09;4.60;99.90
32215;DHT22;18708;53.124;23.190;2024-01-25T01:41:35;4.70;99.90
32215;DHT22;18708;53.124;23.190;2024-01-25T01:44:01;4.70;99.90
32215;DHT22;18708;53.124;23.190;2024-01-25T01:46:34;4.70;99.90
32215;DHT22;18708;53.124;23.190;2024-01-25T01:49:11;4.70;99.90
32215;DHT22;18708;53.124;23.190;2024-01-25T01:51:38;4.70;99.90
32215;DHT22;18708;53.124;23.190;2024-01-25T01:54:08;4.70;99.90
32215;DHT22;18708;53.124;23.190;2024-01-25T01:56:34;4.60;99.90
32215;DHT22;18708;53.124;23.190;2024-01-25T01:59:02;4.70;99.90
32215;DHT22;18708;53.124;23.190;2024-01-25T02:01:28;4.70;99.90
32215;DHT22;18708;53.124;23.190;2024-01-25T02:03:54;4.70;99.90
32215;DHT22;18708;53.124;23.190;2024-01-25T02:06:21;4.70;99.90
32215;DHT22;18708;53.124;23.190;2024-01-25T02:08:48;4.80;99.90
32215;DHT22;18708;53.124;23.190;2024-01-25T02:11:16;4.70;99.90
32215;DHT22;18708;53.124;23.190;2024-01-25T02:13:42;4.70;99.90
32215;DHT22;18708;53.124;23.190;2024-01-25T02:16:08;4.70;99.90
32215;DHT22;18708;53.124;23.190;2024-01-25T02:18:34;4.60;99.90
32215;DHT22;18708;53.124;23.190;2024-01-25T02:21:00;4.70;99.90
32215;DHT22;18708;53.124;23.190;2024-01-25T02:23:26;4.60;99.90
32215;DHT22;18708;53.124;23.190;2024-01-25T02:25:51;4.60;99.90
32215;DHT22;18708;53.124;23.190;2024-01-25T02:28:17;4.50;99.90
32215;DHT22;18708;53.124;23.190;2024-01-25T02:30:43;4.60;99.90
32215;DHT22;18708;53.124;23.190;2024-01-25T02:33:08;4.70;99.90
32215;DHT22;18708;53.124;23.190;2024-01-25T02:35:34;4.60;99.90
32215;DHT22;18708;53.124;23.190;2024-01-25T02:38:00;4.60;99.90
32215;DHT22;18708;53.124;23.190;2024-01-25T02:40:25;4.60;99.90
32215;DHT22;18708;53.124;23.190;2024-01-25T02:42:51;4.50;99.90
32215;DHT22;18708;53.124;23.190;2024-01-25T02:45:17;4.60;99.90
32215;DHT22;18708;53.124;23.190;2024-01-25T02:47:43;4.60;99.90
32215;DHT22;18708;53.124;23.190;2024-01-25T02:50:09;4.50;99.90
32215;DHT22;18708;53.124;23.190;2024-01-25T02:52:34;4.60;99.90
32215;DHT22;18708;53.124;23.190;2024-01-25T02:55:00;4.50;99.90
32215;DHT22;18708;53.124;23.190;2024-01-25T02:57:26;4.50;99.90
32215;DHT22;18708;53.124;23.190;2024-01-25T02:59:52;4.50;99.90
32215;DHT22;18708;53.124;23.190;2024-01-25T03:02:18;4.60;99.90
32215;DHT22;18708;53.124;23.190;2024-01-25T03:04:45;4.60;99.90
32215;DHT22;18708;53.124;23.190;2024-01-25T03:07:11;4.60;99.90
32215;DHT22;18708;53.124;23.190;2024-01-25T03:09:37;4.60;99.90
32215;DHT22;18708;53.124;23.190;2024-01-25T03:12:03;4.60;99.90
32215;DHT22;18708;53.124;23.190;2024-01-25T03:14:28;4.60;99.90
32215;DHT22;18708;53.124;23.190;2024-01-25T03:16:54;4.60;99.90
32215;DHT22;18708;53.124;23.190;2024-01-25T03:19:20;4.60;99.90
32215;DHT22;18708;53.124;23.190;2024-01-25T03:21:45;4.50;99.90
32215;DHT22;18708;53.124;23.190;2024-01-25T03:24:11;4.50;99.90
32215;DHT22;18708;53.124;23.190;2024-01-25T03:26:37;4.40;99.90
32215;DHT22;18708;53.124;23.190;2024-01-25T03:29:05;4.40;99.90
32215;DHT22;18708;53.124;23.190;2024-01-25T03:31:30;4.50;99.90
32215;DHT22;18708;53.124;23.190;2024-01-25T03:33:56;4.40;99.90
32215;DHT22;18708;53.124;23.190;2024-01-25T03:36:24;4.40;99.90
32215;DHT22;18708;53.124;23.190;2024-01-25T03:38:50;4.20;99.90
32215;DHT22;18708;53.124;23.190;2024-01-25T03:41:15;4.30;99.90
32215;DHT22;18708;53.124;23.190;2024-01-25T03:43:43;4.30;99.90
32215;DHT22;18708;53.124;23.190;2024-01-25T03:46:11;4.30;99.90
32215;DHT22;18708;53.124;23.190;2024-01-25T03:48:36;4.30;99.90
32215;DHT22;18708;53.124;23.190;2024-01-25T03:51:02;4.30;99.90
32215;DHT22;18708;53.124;23.190;2024-01-25T03:53:28;4.30;99.90
32215;DHT22;18708;53.124;23.190;2024-01-25T03:55:54;4.30;99.90
32215;DHT22;18708;53.124;23.190;2024-01-25T03:58:22;4.30;99.90
32215;DHT22;18708;53.124;23.190;2024-01-25T04:00:50;4.40;99.90
32215;DHT22;18708;53.124;23.190;2024-01-25T04:03:16;4.30;99.90
32215;DHT22;18708;53.124;23.190;2024-01-25T04:05:41;4.30;99.90
32215;DHT22;18708;53.124;23.190;2024-01-25T04:08:07;4.30;99.90
32215;DHT22;18708;53.124;23.190;2024-01-25T04:10:33;4.30;99.90
32215;DHT22;18708;53.124;23.190;2024-01-25T04:12:59;4.20;99.90
32215;DHT22;18708;53.124;23.190;2024-01-25T04:15:30;4.20;99.90
32215;DHT22;18708;53.124;23.190;2024-01-25T04:17:56;4.20;99.90
32215;DHT22;18708;53.124;23.190;2024-01-25T04:20:22;4.20;99.90
32215;DHT22;18708;53.124;23.190;2024-01-25T04:22:48;4.30;99.90
32215;DHT22;18708;53.124;23.190;2024-01-25T04:25:14;4.20;99.90
32215;DHT22;18708;53.124;23.190;2024-01-25T04:27:39;4.10;99.90
32215;DHT22;18708;53.124;23.190;2024-01-25T04:30:08;4.10;99.90
32215;DHT22;18708;53.124;23.190;2024-01-25T04:32:35;4.20;99.90
32215;DHT22;18708;53.124;23.190;2024-01-25T04:35:01;4.10;99.90
32215;DHT22;18708;53.124;23.190;2024-01-25T04:37:26;4.10;99.90
32215;DHT22;18708;53.124;23.190;2024-01-25T04:39:52;4.10;99.90
32215;DHT22;18708;53.124;23.190;2024-01-25T04:42:18;4.20;99.90
32215;DHT22;18708;53.124;23.190;2024-01-25T04:44:44;4.10;99.90
32215;DHT22;18708;53.124;23.190;2024-01-25T04:47:10;4.10;99.90
32215;DHT22;18708;53.124;23.190;2024-01-25T04:49:36;4.10;99.90
32215;DHT22;18708;53.124;23.190;2024-01-25T04:52:01;4.10;99.90
32215;DHT22;18708;53.124;23.190;2024-01-25T04:54:27;4.00;99.90
32215;DHT22;18708;53.124;23.190;2024-01-25T04:56:53;4.10;99.90
32215;DHT22;18708;53.124;23.190;2024-01-25T04:59:19;4.00;99.90
32215;DHT22;18708;53.124;23.190;2024-01-25T05:01:44;4.00;99.90
32215;DHT22;18708;53.124;23.190;2024-01-25T05:04:10;4.10;99.90
32215;DHT22;18708;53.124;23.190;2024-01-25T05:06:36;4.00;99.90
32215;DHT22;18708;53.124;23.190;2024-01-25T05:09:02;4.00;99.90
32215;DHT22;18708;53.124;23.190;2024-01-25T05:11:28;4.00;99.90
32215;DHT22;18708;53.124;23.190;2024-01-25T05:13:54;4.00;99.90
32215;DHT22;18708;53.124;23.190;2024-01-25T05:16:19;4.00;99.90
32215;DHT22;18708;53.124;23.190;2024-01-25T05:18:45;4.00;99.90
32215;DHT22;18708;53.124;23.190;2024-01-25T05:21:11;3.90;99.90
32215;DHT22;18708;53.124;23.190;2024-01-25T05:23:36;4.10;99.90
32215;DHT22;18708;53.124;23.190;2024-01-25T05:26:02;4.10;99.90
32215;DHT22;18708;53.124;23.190;2024-01-25T05:28:30;4.10;99.90
32215;DHT22;18708;53.124;23.190;2024-01-25T05:30:56;4.00;99.90
32215;DHT22;18708;53.124;23.190;2024-01-25T05:33:21;4.00;99.90
32215;DHT22;18708;53.124;23.190;2024-01-25T05:35:47;3.90;99.90
32215;DHT22;18708;53.124;23.190;2024-01-25T05:38:13;4.00;99.90
32215;DHT22;18708;53.124;23.190;2024-01-25T05:40:39;4.10;99.90
32215;DHT22;18708;53.124;23.190;2024-01-25T05:43:05;4.00;99.90
32215;DHT22;18708;53.124;23.190;2024-01-25T05:45:31;4.00;99.90
32215;DHT22;18708;53.124;23.190;2024-01-25T05:47:56;4.00;99.90
32215;DHT22;18708;53.124;23.190;2024-01-25T05:50:22;3.90;99.90
32215;DHT22;18708;53.124;23.190;2024-01-25T05:52:48;4.00;99.90
32215;DHT22;18708;53.124;23.190;2024-01-25T05:55:13;4.00;99.90
32215;DHT22;18708;53.124;23.190;2024-01-25T05:57:42;3.90;99.90
32215;DHT22;18708;53.124;23.190;2024-01-25T06:00:09;4.00;99.90
32215;DHT22;18708;53.124;23.190;2024-01-25T06:02:37;3.90;99.90
32215;DHT22;18708;53.124;23.190;2024-01-25T06:05:03;4.00;99.90
32215;DHT22;18708;53.124;23.190;2024-01-25T06:07:29;4.00;99.90
32215;DHT22;18708;53.124;23.190;2024-01-25T06:09:55;3.90;99.90
32215;DHT22;18708;53.124;23.190;2024-01-25T06:12:20;3.90;99.90
32215;DHT22;18708;53.124;23.190;2024-01-25T06:14:46;4.00;99.90
32215;DHT22;18708;53.124;23.190;2024-01-25T06:17:12;4.00;99.90
32215;DHT22;18708;53.124;23.190;2024-01-25T06:19:38;3.90;99.90
32215;DHT22;18708;53.124;23.190;2024-01-25T06:22:04;4.00;99.90
32215;DHT22;18708;53.124;23.190;2024-01-25T06:24:29;3.90;99.90
32215;DHT22;18708;53.124;23.190;2024-01-25T06:26:55;3.90;99.90
32215;DHT22;18708;53.124;23.190;2024-01-25T06:29:21;4.00;99.90
32215;DHT22;18708;53.124;23.190;2024-01-25T06:31:46;4.00;99.90
32215;DHT22;18708;53.124;23.190;2024-01-25T06:34:12;3.90;99.90
32215;DHT22;18708;53.124;23.190;2024-01-25T06:36:39;3.90;99.90
32215;DHT22;18708;53.124;23.190;2024-01-25T06:39:04;3.90;99.90
32215;DHT22;18708;53.124;23.190;2024-01-25T06:41:32;3.90;99.90
32215;DHT22;18708;53.124;23.190;2024-01-25T06:43:59;4.00;99.90
32215;DHT22;18708;53.124;23.190;2024-01-25T06:46:25;4.00;99.90
32215;DHT22;18708;53.124;23.190;2024-01-25T06:48:51;4.00;99.90
32215;DHT22;18708;53.124;23.190;2024-01-25T06:51:17;4.00;99.90
32215;DHT22;18708;53.124;23.190;2024-01-25T06:53:42;4.00;99.90
32215;DHT22;18708;53.124;23.190;2024-01-25T06:56:08;4.00;99.90
32215;DHT22;18708;53.124;23.190;2024-01-25T06:58:34;3.90;99.90
32215;DHT22;18708;53.124;23.190;2024-01-25T07:01:00;3.90;99.90
32215;DHT22;18708;53.124;23.190;2024-01-25T07:03:25;3.90;99.90
32215;DHT22;18708;53.124;23.190;2024-01-25T07:05:51;4.00;99.90
32215;DHT22;18708;53.124;23.190;2024-01-25T07:08:17;4.00;99.90
32215;DHT22;18708;53.124;23.190;2024-01-25T07:10:43;4.00;99.90
32215;DHT22;18708;53.124;23.190;2024-01-25T07:13:12;4.00;99.90
32215;DHT22;18708;53.124;23.190;2024-01-25T07:15:37;3.90;99.90
32215;DHT22;18708;53.124;23.190;2024-01-25T07:18:03;3.90;99.90
32215;DHT22;18708;53.124;23.190;2024-01-25T07:20:29;3.90;99.90
32215;DHT22;18708;53.124;23.190;2024-01-25T07:22:56;3.90;99.90
32215;DHT22;18708;53.124;23.190;2024-01-25T07:25:21;3.90;99.90
32215;DHT22;18708;53.124;23.190;2024-01-25T07:27:47;4.00;99.90
32215;DHT22;18708;53.124;23.190;2024-01-25T07:30:14;4.00;99.90
32215;DHT22;18708;53.124;23.190;2024-01-25T07:32:42;4.00;99.90
32215;DHT22;18708;53.124;23.190;2024-01-25T07:35:09;4.00;99.90
32215;DHT22;18708;53.124;23.190;2024-01-25T07:37:38;3.90;99.90
32215;DHT22;18708;53.124;23.190;2024-01-25T07:40:05;3.90;99.90
32215;DHT22;18708;53.124;23.190;2024-01-25T07:42:34;4.00;99.90
32215;DHT22;18708;53.124;23.190;2024-01-25T07:45:00;4.00;99.90
32215;DHT22;18708;53.124;23.190;2024-01-25T07:47:26;3.90;99.90
32215;DHT22;18708;53.124;23.190;2024-01-25T07:49:52;4.00;99.90
32215;DHT22;18708;53.124;23.190;2024-01-25T07:52:17;4.00;99.90
32215;DHT22;18708;53.124;23.190;2024-01-25T07:54:43;4.00;99.90
32215;DHT22;18708;53.124;23.190;2024-01-25T07:57:10;4.10;99.90
32215;DHT22;18708;53.124;23.190;2024-01-25T07:59:35;4.00;99.90
32215;DHT22;18708;53.124;23.190;2024-01-25T08:02:01;4.10;99.90
32215;DHT22;18708;53.124;23.190;2024-01-25T08:04:27;4.10;99.90
32215;DHT22;18708;53.124;23.190;2024-01-25T08:06:52;4.00;99.90
32215;DHT22;18708;53.124;23.190;2024-01-25T08:09:20;4.10;99.90
32215;DHT22;18708;53.124;23.190;2024-01-25T08:11:46;4.00;99.90
32215;DHT22;18708;53.124;23.190;2024-01-25T08:14:12;4.10;99.90
32215;DHT22;18708;53.124;23.190;2024-01-25T08:16:37;4.10;99.90
32215;DHT22;18708;53.124;23.190;2024-01-25T08:19:05;4.00;99.90
32215;DHT22;18708;53.124;23.190;2024-01-25T08:21:31;4.00;99.90
32215;DHT22;18708;53.124;23.190;2024-01-25T08:23:57;4.00;99.90
32215;DHT22;18708;53.124;23.190;2024-01-25T08:26:22;4.10;99.90
32215;DHT22;18708;53.124;23.190;2024-01-25T08:28:50;4.10;99.90
32215;DHT22;18708;53.124;23.190;2024-01-25T08:31:16;4.10;99.90
32215;DHT22;18708;53.124;23.190;2024-01-25T08:33:42;4.10;99.90
32215;DHT22;18708;53.124;23.190;2024-01-25T08:36:10;4.00;99.90
32215;DHT22;18708;53.124;23.190;2024-01-25T08:38:38;4.00;99.90
32215;DHT22;18708;53.124;23.190;2024-01-25T08:41:04;4.10;99.90
32215;DHT22;18708;53.124;23.190;2024-01-25T08:43:30;4.10;99.90
32215;DHT22;18708;53.124;23.190;2024-01-25T08:45:55;4.00;99.90
32215;DHT22;18708;53.124;23.190;2024-01-25T08:48:21;4.00;99.90
32215;DHT22;18708;53.124;23.190;2024-01-25T08:50:47;4.00;99.90
32215;DHT22;18708;53.124;23.190;2024-01-25T08:53:20;4.00;99.90
32215;DHT22;18708;53.124;23.190;2024-01-25T08:55:53;4.00;99.90
32215;DHT22;18708;53.124;23.190;2024-01-25T08:58:19;4.10;99.90
32215;DHT22;18708;53.124;23.190;2024-01-25T09:00:45;4.00;99.90
32215;DHT22;18708;53.124;23.190;2024-01-25T09:03:11;4.00;99.90
32215;DHT22;18708;53.124;23.190;2024-01-25T09:05:36;4.10;99.90
32215;DHT22;18708;53.124;23.190;2024-01-25T09:08:06;4.10;99.90
32215;DHT22;18708;53.124;23.190;2024-01-25T09:10:32;4.10;99.90
32215;DHT22;18708;53.124;23.190;2024-01-25T09:12:58;4.10;99.90
32215;DHT22;18708;53.124;23.190;2024-01-25T09:15:24;4.10;99.90
32215;DHT22;18708;53.124;23.190;2024-01-25T09:17:49;4.20;99.90
32215;DHT22;18708;53.124;23.190;2024-01-25T09:20:15;4.20;99.90
32215;DHT22;18708;53.124;23.190;2024-01-25T09:22:41;4.10;99.90
32215;DHT22;18708;53.124;23.190;2024-01-25T09:25:07;4.10;99.90
32215;DHT22;18708;53.124;23.190;2024-01-25T09:27:35;4.10;99.90
32215;DHT22;18708;53.124;23.190;2024-01-25T09:30:00;4.20;99.90
32215;DHT22;18708;53.124;23.190;2024-01-25T09:32:26;4.10;99.90
32215;DHT22;18708;53.124;23.190;2024-01-25T09:34:52;4.20;99.90
32215;DHT22;18708;53.124;23.190;2024-01-25T09:37:18;4.20;99.90
32215;DHT22;18708;53.124;23.190;2024-01-25T09:39:47;4.20;99.90
32215;DHT22;18708;53.124;23.190;2024-01-25T09:42:13;4.20;99.90
32215;DHT22;18708;53.124;23.190;2024-01-25T09:44:40;4.20;99.90
32215;DHT22;18708;53.124;23.190;2024-01-25T09:47:05;4.20;99.90
32215;DHT22;18708;53.124;23.190;2024-01-25T09:49:34;4.20;99.90
32215;DHT22;18708;53.124;23.190;2024-01-25T09:52:02;4.10;99.90
32215;DHT22;18708;53.124;23.190;2024-01-25T09:54:34;4.00;99.90
32215;DHT22;18708;53.124;23.190;2024-01-25T09:57:05;3.90;99.90
32215;DHT22;18708;53.124;23.190;2024-01-25T09:59:31;3.80;99.90
32215;DHT22;18708;53.124;23.190;2024-01-25T10:01:58;3.70;99.90
32215;DHT22;18708;53.124;23.190;2024-01-25T10:04:24;3.70;99.90
32215;DHT22;18708;53.124;23.190;2024-01-25T10:06:50;3.60;99.90
32215;DHT22;18708;53.124;23.190;2024-01-25T10:09:16;3.60;99.90
32215;DHT22;18708;53.124;23.190;2024-01-25T10:11:42;3.50;99.90
32215;DHT22;18708;53.124;23.190;2024-01-25T10:14:08;3.50;99.90
32215;DHT22;18708;53.124;23.190;2024-01-25T10:16:34;3.50;99.90
32215;DHT22;18708;53.124;23.190;2024-01-25T10:19:01;3.50;99.90
32215;DHT22;18708;53.124;23.190;2024-01-25T10:21:29;3.50;99.90
32215;DHT22;18708;53.124;23.190;2024-01-25T10:23:55;3.50;99.90
32215;DHT22;18708;53.124;23.190;2024-01-25T10:26:26;3.50;99.90
32215;DHT22;18708;53.124;23.190;2024-01-25T10:28:54;3.50;99.90
32215;DHT22;18708;53.124;23.190;2024-01-25T10:31:23;3.50;99.90
32215;DHT22;18708;53.124;23.190;2024-01-25T10:33:52;3.50;99.90
32215;DHT22;18708;53.124;23.190;2024-01-25T10:36:23;3.50;99.90
32215;DHT22;18708;53.124;23.190;2024-01-25T10:38:49;3.40;99.90
32215;DHT22;18708;53.124;23.190;2024-01-25T10:41:16;3.30;99.90
32215;DHT22;18708;53.124;23.190;2024-01-25T10:43:43;3.20;99.90
32215;DHT22;18708;53.124;23.190;2024-01-25T10:46:10;3.20;99.90
32215;DHT22;18708;53.124;23.190;2024-01-25T10:48:37;3.20;99.90
32215;DHT22;18708;53.124;23.190;2024-01-25T10:51:04;3.20;99.90
32215;DHT22;18708;53.124;23.190;2024-01-25T10:53:34;3.30;99.90
32215;DHT22;18708;53.124;23.190;2024-01-25T10:56:02;3.10;99.90
32215;DHT22;18708;53.124;23.190;2024-01-25T10:58:31;3.20;99.90
32215;DHT22;18708;53.124;23.190;2024-01-25T11:00:59;3.20;99.90
32215;DHT22;18708;53.124;23.190;2024-01-25T11:03:28;3.20;99.90
32215;DHT22;18708;53.124;23.190;2024-01-25T11:06:06;3.20;99.90
32215;DHT22;18708;53.124;23.190;2024-01-25T11:08:33;3.20;99.90
32215;DHT22;18708;53.124;23.190;2024-01-25T11:10:59;3.10;99.90
32215;DHT22;18708;53.124;23.190;2024-01-25T11:13:28;3.20;99.90
32215;DHT22;18708;53.124;23.190;2024-01-25T11:15:55;3.20;99.90
32215;DHT22;18708;53.124;23.190;2024-01-25T11:18:24;3.20;99.90
32215;DHT22;18708;53.124;23.190;2024-01-25T11:20:50;3.20;99.90
32215;DHT22;18708;53.124;23.190;2024-01-25T11:23:16;3.10;99.90
32215;DHT22;18708;53.124;23.190;2024-01-25T11:25:45;3.10;99.90
32215;DHT22;18708;53.124;23.190;2024-01-25T11:28:14;3.10;99.90
32215;DHT22;18708;53.124;23.190;2024-01-25T11:30:40;3.10;99.90
32215;DHT22;18708;53.124;23.190;2024-01-25T11:33:09;3.10;99.90
32215;DHT22;18708;53.124;23.190;2024-01-25T11:35:35;3.10;99.90
32215;DHT22;18708;53.124;23.190;2024-01-25T11:38:01;3.10;99.90
32215;DHT22;18708;53.124;23.190;2024-01-25T11:40:27;3.10;99.90
32215;DHT22;18708;53.124;23.190;2024-01-25T11:42:57;3.10;99.90
32215;DHT22;18708;53.124;23.190;2024-01-25T11:45:22;3.00;99.90
32215;DHT22;18708;53.124;23.190;2024-01-25T11:47:50;3.10;99.90
32215;DHT22;18708;53.124;23.190;2024-01-25T11:50:16;3.10;99.90
32215;DHT22;18708;53.124;23.190;2024-01-25T11:52:42;3.10;99.90
32215;DHT22;18708;53.124;23.190;2024-01-25T11:55:11;3.00;99.90
32215;DHT22;18708;53.124;23.190;2024-01-25T11:57:39;3.00;99.90
32215;DHT22;18708;53.124;23.190;2024-01-25T12:00:08;3.00;99.90
32215;DHT22;18708;53.124;23.190;2024-01-25T12:02:36;3.00;99.90
32215;DHT22;18708;53.124;23.190;2024-01-25T12:05:03;2.90;99.90
32215;DHT22;18708;53.124;23.190;2024-01-25T12:07:32;3.00;99.90
32215;DHT22;18708;53.124;23.190;2024-01-25T12:09:59;3.10;99.90
32215;DHT22;18708;53.124;23.190;2024-01-25T12:12:25;2.90;99.90
32215;DHT22;18708;53.124;23.190;2024-01-25T12:14:51;2.90;99.90
32215;DHT22;18708;53.124;23.190;2024-01-25T12:17:18;2.80;99.90
32215;DHT22;18708;53.124;23.190;2024-01-25T12:19:43;2.80;99.90
32215;DHT22;18708;53.124;23.190;2024-01-25T12:22:09;2.80;99.90
32215;DHT22;18708;53.124;23.190;2024-01-25T12:24:35;2.80;99.90
32215;DHT22;18708;53.124;23.190;2024-01-25T12:27:01;2.80;99.90
32215;DHT22;18708;53.124;23.190;2024-01-25T12:29:26;2.80;99.90
32215;DHT22;18708;53.124;23.190;2024-01-25T12:31:52;2.80;99.90
32215;DHT22;18708;53.124;23.190;2024-01-25T12:34:17;2.80;99.90
32215;DHT22;18708;53.124;23.190;2024-01-25T12:36:43;2.90;99.90
32215;DHT22;18708;53.124;23.190;2024-01-25T12:39:09;2.90;99.90
32215;DHT22;18708;53.124;23.190;2024-01-25T12:41:35;2.80;99.90
32215;DHT22;18708;53.124;23.190;2024-01-25T12:44:01;2.90;99.90
32215;DHT22;18708;53.124;23.190;2024-01-25T12:46:27;2.90;99.90
32215;DHT22;18708;53.124;23.190;2024-01-25T12:48:55;2.90;99.90
32215;DHT22;18708;53.124;23.190;2024-01-25T12:51:22;2.90;99.90
32215;DHT22;18708;53.124;23.190;2024-01-25T12:53:50;2.90;99.90
32215;DHT22;18708;53.124;23.190;2024-01-25T12:56:16;2.90;99.90
32215;DHT22;18708;53.124;23.190;2024-01-25T12:58:41;2.90;99.90
32215;DHT22;18708;53.124;23.190;2024-01-25T13:01:08;2.90;99.90
32215;DHT22;18708;53.124;23.190;2024-01-25T13:03:34;2.80;99.90
32215;DHT22;18708;53.124;23.190;2024-01-25T13:06:00;2.80;99.90
32215;DHT22;18708;53.124;23.190;2024-01-25T13:08:28;2.80;99.90
32215;DHT22;18708;53.124;23.190;2024-01-25T13:10:54;2.80;99.90
32215;DHT22;18708;53.124;23.190;2024-01-25T13:13:22;2.80;99.90
32215;DHT22;18708;53.124;23.190;2024-01-25T13:15:48;2.80;99.90
32215;DHT22;18708;53.124;23.190;2024-01-25T13:18:14;2.70;99.90
32215;DHT22;18708;53.124;23.190;2024-01-25T13:20:39;2.70;99.90
32215;DHT22;18708;53.124;23.190;2024-01-25T13:23:05;2.80;99.90
32215;DHT22;18708;53.124;23.190;2024-01-25T13:25:32;2.70;99.90
32215;DHT22;18708;53.124;23.190;2024-01-25T13:27:57;2.70;99.90
32215;DHT22;18708;53.124;23.190;2024-01-25T13:30:23;2.70;99.90
32215;DHT22;18708;53.124;23.190;2024-01-25T13:32:49;2.70;99.90
32215;DHT22;18708;53.124;23.190;2024-01-25T13:35:14;2.70;99.90
32215;DHT22;18708;53.124;23.190;2024-01-25T13:37:40;2.70;99.90
32215;DHT22;18708;53.124;23.190;2024-01-25T13:40:06;2.70;99.90
32215;DHT22;18708;53.124;23.190;2024-01-25T13:42:32;2.70;99.90
32215;DHT22;18708;53.124;23.190;2024-01-25T13:44:57;2.70;99.90
32215;DHT22;18708;53.124;23.190;2024-01-25T13:47:23;2.70;99.90
32215;DHT22;18708;53.124;23.190;2024-01-25T13:49:49;2.80;99.90
32215;DHT22;18708;53.124;23.190;2024-01-25T13:52:19;2.80;99.90
32215;DHT22;18708;53.124;23.190;2024-01-25T13:54:46;2.80;99.90
32215;DHT22;18708;53.124;23.190;2024-01-25T13:57:11;2.70;99.90
32215;DHT22;18708;53.124;23.190;2024-01-25T13:59:37;2.70;99.90
32215;DHT22;18708;53.124;23.190;2024-01-25T14:02:03;2.60;99.90
32215;DHT22;18708;53.124;23.190;2024-01-25T14:04:31;2.60;99.90
32215;DHT22;18708;53.124;23.190;2024-01-25T14:06:57;2.60;99.90
32215;DHT22;18708;53.124;23.190;2024-01-25T14:09:25;2.60;99.90
32215;DHT22;18708;53.124;23.190;2024-01-25T14:11:51;2.60;99.90
32215;DHT22;18708;53.124;23.190;2024-01-25T14:14:16;2.60;99.90
32215;DHT22;18708;53.124;23.190;2024-01-25T14:16:44;2.60;99.90
32215;DHT22;18708;53.124;23.190;2024-01-25T14:19:12;2.60;99.90
32215;DHT22;18708;53.124;23.190;2024-01-25T14:21:38;2.60;99.90
32215;DHT22;18708;53.124;23.190;2024-01-25T14:24:04;2.60;99.90
32215;DHT22;18708;53.124;23.190;2024-01-25T14:26:29;2.60;99.90
32215;DHT22;18708;53.124;23.190;2024-01-25T14:28:55;2.60;99.90
32215;DHT22;18708;53.124;23.190;2024-01-25T14:31:21;2.50;99.90
32215;DHT22;18708;53.124;23.190;2024-01-25T14:33:46;2.50;99.90
32215;DHT22;18708;53.124;23.190;2024-01-25T14:36:12;2.50;99.90
32215;DHT22;18708;53.124;23.190;2024-01-25T14:38:39;2.50;99.90
32215;DHT22;18708;53.124;23.190;2024-01-25T14:41:09;2.50;99.90
32215;DHT22;18708;53.124;23.190;2024-01-25T14:43:37;2.60;99.90
32215;DHT22;18708;53.124;23.190;2024-01-25T14:46:03;2.50;99.90
32215;DHT22;18708;53.124;23.190;2024-01-25T14:48:28;2.60;99.90
32215;DHT22;18708;53.124;23.190;2024-01-25T14:50:54;2.60;99.90
32215;DHT22;18708;53.124;23.190;2024-01-25T14:53:20;2.60;99.90
32215;DHT22;18708;53.124;23.190;2024-01-25T14:55:45;2.50;99.90
32215;DHT22;18708;53.124;23.190;2024-01-25T14:58:12;2.50;99.90
32215;DHT22;18708;53.124;23.190;2024-01-25T15:00:40;2.50;99.90
32215;DHT22;18708;53.124;23.190;2024-01-25T15:03:06;2.50;99.90
32215;DHT22;18708;53.124;23.190;2024-01-25T15:05:32;2.50;99.90
32215;DHT22;18708;53.124;23.190;2024-01-25T15:07:57;2.50;99.90
32215;DHT22;18708;53.124;23.190;2024-01-25T15:10:24;2.50;99.90
32215;DHT22;18708;53.124;23.190;2024-01-25T15:12:49;2.50;99.90
32215;DHT22;18708;53.124;23.190;2024-01-25T15:15:19;2.50;99.90
32215;DHT22;18708;53.124;23.190;2024-01-25T15:17:44;2.50;99.90
32215;DHT22;18708;53.124;23.190;2024-01-25T15:20:13;2.50;99.90
32215;DHT22;18708;53.124;23.190;2024-01-25T15:22:41;2.40;99.90
32215;DHT22;18708;53.124;23.190;2024-01-25T15:25:09;2.50;99.90